createdAt,value
2018-03-30T00:01:39.858Z,50.90
2018-03-30T00:04:42.281Z,48.17
2018-03-30T00:07:44.688Z,47.50
2018-03-30T00:10:47.099Z,51.40
2018-03-30T00:13:49.621Z,56.90
2018-03-30T00:16:52.001Z,54.13
2018-03-30T00:19:54.433Z,51.30
2018-03-30T00:22:56.896Z,52.53
2018-03-30T00:25:59.297Z,52.43
2018-03-30T00:29:01.773Z,49.80
2018-03-30T00:32:04.156Z,49.10
2018-03-30T00:35:06.581Z,50.13
2018-03-30T00:38:08.991Z,48.73
2018-03-30T00:41:11.456Z,41.07
2018-03-30T00:44:13.876Z,41.07
2018-03-30T00:47:16.260Z,34.70
2018-03-30T00:50:18.697Z,36.30
2018-03-30T00:53:21.103Z,33.17
2018-03-30T00:56:23.558Z,33.70
2018-03-30T00:59:26.025Z,33.77
2018-03-30T01:02:28.421Z,30.87
2018-03-30T01:05:30.856Z,33.20
2018-03-30T01:08:33.234Z,30.60
2018-03-30T01:11:35.657Z,32.00
2018-03-30T01:14:38.089Z,28.23
2018-03-30T01:17:40.509Z,28.30
2018-03-30T01:20:42.922Z,29.20
2018-03-30T01:23:45.332Z,31.33
2018-03-30T01:26:47.769Z,33.83
2018-03-30T01:29:50.137Z,36.33
2018-03-30T01:32:52.562Z,35.03
2018-03-30T01:35:55.008Z,32.93
2018-03-30T01:38:57.459Z,31.63
2018-03-30T01:41:59.849Z,32.57
2018-03-30T01:45:02.359Z,31.10
2018-03-30T01:48:04.789Z,33.80
2018-03-30T01:51:07.156Z,28.67
2018-03-30T01:54:09.565Z,29.37
2018-03-30T01:57:12.055Z,30.67
2018-03-30T02:00:14.478Z,30.30
2018-03-30T02:03:16.891Z,32.23
2018-03-30T02:06:19.297Z,30.27
2018-03-30T02:09:21.666Z,28.93
2018-03-30T02:12:24.143Z,29.83
2018-03-30T02:15:26.593Z,26.67
2018-03-30T02:18:29.017Z,27.90
2018-03-30T02:21:31.455Z,30.97
2018-03-30T02:24:33.854Z,27.83
2018-03-30T02:27:36.273Z,25.00
2018-03-30T02:30:38.694Z,25.07
2018-03-30T02:33:41.137Z,26.30
2018-03-30T02:36:43.624Z,32.50
2018-03-30T02:39:46.189Z,27.60
2018-03-30T02:42:48.610Z,25.77
2018-03-30T02:45:51.044Z,27.70
2018-03-30T02:48:53.418Z,23.17
2018-03-30T02:51:55.829Z,22.10
2018-03-30T02:54:58.258Z,21.00
2018-03-30T02:58:00.745Z,21.73
2018-03-30T03:01:03.206Z,21.70
2018-03-30T03:04:05.602Z,22.90
2018-03-30T03:07:08.044Z,22.37
2018-03-30T03:10:10.430Z,19.43
2018-03-30T03:13:12.851Z,20.90
2018-03-30T03:16:15.311Z,21.27
2018-03-30T03:19:17.710Z,20.47
2018-03-30T03:22:20.115Z,16.70
2018-03-30T03:25:22.536Z,26.07
2018-03-30T03:28:24.965Z,17.03
2018-03-30T03:31:27.353Z,20.07
2018-03-30T03:34:29.870Z,18.23
2018-03-30T03:37:32.314Z,19.70
2018-03-30T03:40:34.688Z,20.50
2018-03-30T03:43:37.107Z,20.00
2018-03-30T03:46:39.491Z,20.50
2018-03-30T03:49:41.938Z,24.47
2018-03-30T03:52:44.346Z,23.13
2018-03-30T03:55:46.763Z,21.80
2018-03-30T03:58:49.191Z,19.23
2018-03-30T04:01:51.618Z,22.27
2018-03-30T04:04:54.019Z,23.00
2018-03-30T04:07:56.436Z,19.97
2018-03-30T04:10:58.942Z,21.40
2018-03-30T04:14:01.370Z,20.80
2018-03-30T04:17:03.791Z,21.60
2018-03-30T04:20:06.195Z,19.70
2018-03-30T04:23:08.621Z,19.97
2018-03-30T04:26:11.041Z,15.30
2018-03-30T04:29:13.463Z,16.70
2018-03-30T04:32:15.850Z,16.43
2018-03-30T04:35:18.248Z,19.83
2018-03-30T04:38:20.658Z,16.87
2018-03-30T04:41:23.075Z,14.93
2018-03-30T04:44:25.482Z,17.80
2018-03-30T04:47:27.997Z,17.97
2018-03-30T04:50:30.419Z,19.60
2018-03-30T04:53:32.871Z,18.87
2018-03-30T04:56:35.246Z,20.23
2018-03-30T04:59:37.644Z,19.67
2018-03-30T05:02:40.022Z,18.70
2018-03-30T05:05:42.558Z,19.70
2018-03-30T05:08:44.924Z,18.70
2018-03-30T05:11:47.329Z,18.20
2018-03-30T05:14:49.824Z,20.17
2018-03-30T05:17:52.265Z,21.33
2018-03-30T05:20:54.680Z,20.93
2018-03-30T05:23:57.063Z,24.60
2018-03-30T05:26:59.613Z,19.87
2018-03-30T05:30:02.062Z,20.47
2018-03-30T05:33:04.586Z,20.90
2018-03-30T05:36:07.156Z,21.23
2018-03-30T05:39:09.609Z,19.90
2018-03-30T05:42:12.086Z,21.93
2018-03-30T05:45:14.507Z,20.30
2018-03-30T05:48:17.101Z,22.47
2018-03-30T05:51:19.619Z,21.63
2018-03-30T05:54:22.096Z,21.77
2018-03-30T05:57:24.789Z,25.43
2018-03-30T06:00:27.364Z,20.23
2018-03-30T06:03:29.899Z,24.23
2018-03-30T06:06:32.382Z,25.73
2018-03-30T06:09:34.946Z,23.30
2018-03-30T06:12:37.403Z,23.83
2018-03-30T06:15:39.870Z,30.77
2018-03-30T06:18:42.489Z,24.60
2018-03-30T06:21:45.086Z,22.50
2018-03-30T06:24:47.591Z,23.33
2018-03-30T06:27:50.106Z,29.27
2018-03-30T06:30:52.611Z,25.87
2018-03-30T06:33:55.076Z,24.90
2018-03-30T06:36:57.611Z,24.67
2018-03-30T06:40:00.113Z,29.30
2018-03-30T06:43:02.695Z,26.30
2018-03-30T06:46:05.195Z,24.77
2018-03-30T06:49:07.703Z,23.97
2018-03-30T06:52:10.212Z,25.00
2018-03-30T06:55:12.801Z,25.80
2018-03-30T06:58:15.338Z,23.73
2018-03-30T07:01:18.129Z,27.00
2018-03-30T07:07:39.341Z,26.43
2018-03-30T07:10:41.808Z,26.20
2018-03-30T07:13:44.338Z,24.70
2018-03-30T07:16:46.823Z,29.20
2018-03-30T07:19:49.341Z,26.77
2018-03-30T07:22:51.821Z,26.77
2018-03-30T07:25:54.317Z,27.47
2018-03-30T07:28:56.801Z,24.57
2018-03-30T07:31:59.268Z,29.93
2018-03-30T07:35:01.762Z,26.17
2018-03-30T07:38:04.296Z,27.97
2018-03-30T07:41:06.766Z,25.27
2018-03-30T07:44:09.269Z,27.80
2018-03-30T07:47:11.784Z,25.53
2018-03-30T07:50:14.337Z,26.53
2018-03-30T07:53:16.864Z,26.43
2018-03-30T07:56:19.337Z,34.83
2018-03-30T07:59:21.838Z,25.80
2018-03-30T08:02:24.357Z,26.00
2018-03-30T08:05:26.809Z,24.47
2018-03-30T08:08:29.346Z,24.87
2018-03-30T08:11:31.805Z,23.97
2018-03-30T08:14:34.337Z,26.03
2018-03-30T08:17:36.820Z,27.30
2018-03-30T08:20:39.349Z,24.50
2018-03-30T08:23:41.853Z,24.27
2018-03-30T08:26:44.368Z,27.20
2018-03-30T08:29:46.849Z,22.47
2018-03-30T08:32:49.377Z,23.30
2018-03-30T08:35:51.968Z,24.10
2018-03-30T08:38:54.442Z,20.10
2018-03-30T08:41:56.997Z,25.30
2018-03-30T08:44:59.559Z,23.20
2018-03-30T08:48:02.095Z,23.70
2018-03-30T08:51:04.566Z,20.90
2018-03-30T08:54:07.077Z,21.80
2018-03-30T08:57:09.587Z,25.80
2018-03-30T09:00:12.169Z,25.17
2018-03-30T09:03:14.673Z,20.80
2018-03-30T09:06:17.293Z,25.27
2018-03-30T09:09:19.758Z,23.10
2018-03-30T09:12:22.273Z,25.60
2018-03-30T09:15:24.788Z,23.30
2018-03-30T09:18:27.303Z,23.30
2018-03-30T09:21:29.844Z,23.80
2018-03-30T09:24:32.401Z,21.70
2018-03-30T09:27:34.878Z,22.03
2018-03-30T09:30:37.388Z,20.47
2018-03-30T09:33:39.889Z,23.03
2018-03-30T09:36:42.385Z,19.67
2018-03-30T09:39:44.901Z,21.00
2018-03-30T09:42:47.412Z,22.63
2018-03-30T09:45:49.920Z,21.93
2018-03-30T09:48:52.403Z,25.87
2018-03-30T09:51:54.889Z,23.93
2018-03-30T09:54:57.375Z,20.93
2018-03-30T09:57:59.884Z,26.00
2018-03-30T10:01:02.359Z,23.53
2018-03-30T10:04:14.791Z,21.27
2018-03-30T10:07:17.274Z,20.60
2018-03-30T10:10:19.816Z,17.47
2018-03-30T10:13:22.368Z,19.30
2018-03-30T10:16:24.939Z,21.50
2018-03-30T10:19:27.445Z,18.43
2018-03-30T10:22:29.934Z,19.30
2018-03-30T10:25:32.485Z,19.53
2018-03-30T10:28:35.004Z,20.53
2018-03-30T10:31:37.465Z,18.47
2018-03-30T10:34:39.967Z,17.63
2018-03-30T10:37:42.500Z,22.57
2018-03-30T10:40:44.993Z,16.50
2018-03-30T10:43:47.616Z,21.00
2018-03-30T10:46:50.155Z,19.93
2018-03-30T10:49:52.824Z,17.40
2018-03-30T10:52:55.386Z,16.97
2018-03-30T10:55:57.953Z,16.77
2018-03-30T10:59:00.473Z,17.87
2018-03-30T11:02:02.999Z,17.37
2018-03-30T11:05:05.549Z,18.90
2018-03-30T11:08:08.058Z,19.17
2018-03-30T11:11:10.568Z,15.80
2018-03-30T11:14:13.074Z,19.20
2018-03-30T11:17:15.595Z,18.23
2018-03-30T11:20:18.145Z,15.20
2018-03-30T11:23:20.668Z,17.77
2018-03-30T11:26:23.194Z,15.50
2018-03-30T11:29:25.729Z,14.33
2018-03-30T11:32:28.294Z,12.90
2018-03-30T11:35:30.821Z,16.20
2018-03-30T11:38:33.318Z,12.63
2018-03-30T11:41:35.892Z,15.53
2018-03-30T11:44:38.487Z,13.47
2018-03-30T11:47:41.005Z,13.00
2018-03-30T11:50:43.604Z,13.70
2018-03-30T11:53:46.099Z,12.50
2018-03-30T11:56:48.634Z,14.27
2018-03-30T11:59:51.154Z,13.80
2018-03-30T12:02:53.719Z,17.07
2018-03-30T12:05:56.265Z,23.00
2018-03-30T12:08:58.741Z,21.20
2018-03-30T12:12:01.274Z,14.20
2018-03-30T12:15:03.731Z,10.60
2018-03-30T12:18:06.280Z,12.10
2018-03-30T12:21:08.781Z,12.87
2018-03-30T12:24:11.266Z,13.07
2018-03-30T12:27:13.758Z,14.43
2018-03-30T12:30:16.264Z,10.23
2018-03-30T12:33:18.757Z,15.30
2018-03-30T12:36:21.406Z,11.63
2018-03-30T12:39:23.937Z,14.10
2018-03-30T12:42:26.522Z,11.50
2018-03-30T12:45:29.030Z,10.00
2018-03-30T12:48:31.501Z,9.20
2018-03-30T12:51:34.030Z,11.80
2018-03-30T12:54:36.571Z,9.93
2018-03-30T12:57:39.139Z,11.80
2018-03-30T13:00:41.731Z,10.43
2018-03-30T13:03:44.241Z,8.70
2018-03-30T13:06:47.504Z,11.70
2018-03-30T13:09:49.981Z,11.10
2018-03-30T13:12:52.511Z,11.77
2018-03-30T13:15:54.991Z,9.73
2018-03-30T13:18:57.510Z,9.30
2018-03-30T13:21:59.976Z,9.60
2018-03-30T13:25:02.832Z,12.97
2018-03-30T13:28:05.375Z,12.83
2018-03-30T13:31:07.944Z,9.50
2018-03-30T13:34:10.471Z,13.10
2018-03-30T13:37:12.993Z,10.93
2018-03-30T13:40:15.623Z,10.30
2018-03-30T13:43:18.182Z,10.97
2018-03-30T13:46:21.431Z,11.67
2018-03-30T13:49:24.036Z,9.90
2018-03-30T13:52:42.127Z,12.27
2018-03-30T13:55:45.569Z,11.90
2018-03-30T13:58:50.863Z,9.60
2018-03-30T14:02:05.256Z,13.30
2018-03-30T14:08:55.743Z,12.17
2018-03-30T14:12:07.639Z,12.63
2018-03-30T14:15:12.937Z,12.20
2018-03-30T14:18:16.122Z,11.13
2018-03-30T14:21:19.326Z,13.90
2018-03-30T14:24:22.727Z,12.30
2018-03-30T14:27:44.897Z,12.80
2018-03-30T14:30:51.237Z,11.13
2018-03-30T14:33:53.722Z,11.33
2018-03-30T14:37:03.772Z,11.67
2018-03-30T14:40:21.783Z,11.67
2018-03-30T14:43:37.503Z,11.23
2018-03-30T14:46:52.478Z,11.27
2018-03-30T14:50:01.812Z,10.70
2018-03-30T14:53:05.984Z,11.97
2018-03-30T14:56:15.331Z,10.37
2018-03-30T14:59:22.677Z,11.10
2018-03-30T15:02:32.866Z,10.80
2018-03-30T15:09:34.242Z,16.13
2018-03-30T15:12:39.299Z,11.03
2018-03-30T15:15:58.577Z,10.73
2018-03-30T15:19:07.583Z,10.37
2018-03-30T15:22:10.147Z,10.40
2018-03-30T15:25:22.229Z,8.40
2018-03-30T15:28:24.794Z,10.40
2018-03-30T15:31:34.210Z,10.30
2018-03-30T15:34:37.327Z,11.63
2018-03-30T15:37:40.112Z,12.80
2018-03-30T15:40:42.544Z,10.57
2018-03-30T15:43:46.533Z,12.23
2018-03-30T15:47:03.831Z,10.60
2018-03-30T15:50:06.406Z,11.70
2018-03-30T15:53:17.442Z,11.53
2018-03-30T15:56:20.001Z,12.07
2018-03-30T15:59:22.458Z,11.50
2018-03-30T16:02:25.014Z,11.20
2018-03-30T16:05:27.593Z,10.33
2018-03-30T16:08:30.149Z,9.90
2018-03-30T16:11:36.345Z,13.70
2018-03-30T16:14:38.827Z,11.77
2018-03-30T16:17:41.407Z,12.40
2018-03-30T16:20:43.338Z,13.00
2018-03-30T16:23:45.405Z,16.53
2018-03-30T16:26:47.362Z,11.00
2018-03-30T16:29:49.299Z,11.50
2018-03-30T16:32:51.204Z,13.37
2018-03-30T16:35:53.204Z,11.37
2018-03-30T16:38:55.095Z,14.53
2018-03-30T16:41:57.030Z,11.57
2018-03-30T16:44:58.992Z,13.27
2018-03-30T16:48:00.938Z,11.90
2018-03-30T16:51:02.840Z,14.90
2018-03-30T16:54:04.895Z,13.40
2018-03-30T16:57:07.969Z,15.37
2018-03-30T17:00:09.934Z,17.63
2018-03-30T17:03:11.968Z,23.93
2018-03-30T17:06:13.925Z,24.30
2018-03-30T17:09:15.864Z,30.97
2018-03-30T17:12:17.922Z,28.27
2018-03-30T17:15:20.221Z,25.20
2018-03-30T17:18:22.209Z,33.70
2018-03-30T17:21:24.154Z,27.20
2018-03-30T17:24:26.096Z,32.23
2018-03-30T17:27:28.171Z,27.50
2018-03-30T17:30:30.092Z,22.20
2018-03-30T17:33:32.068Z,33.20
2018-03-30T17:36:34.003Z,29.30
2018-03-30T17:39:35.974Z,35.60
2018-03-30T17:42:38.025Z,29.90
2018-03-30T17:45:39.971Z,35.43
2018-03-30T17:48:41.895Z,74.87
2018-03-30T17:51:43.823Z,42.73
2018-03-30T17:54:45.775Z,27.93
2018-03-30T17:57:47.880Z,24.73
2018-03-30T18:00:49.784Z,28.67
2018-03-30T18:03:51.722Z,30.83
2018-03-30T18:06:53.726Z,28.73
2018-03-30T18:09:55.646Z,31.00
2018-03-30T18:12:57.603Z,27.90
2018-03-30T18:15:59.520Z,34.03
2018-03-30T18:19:01.453Z,31.37
2018-03-30T18:22:03.404Z,33.97
2018-03-30T18:25:05.351Z,34.13
2018-03-30T18:28:07.297Z,26.27
2018-03-30T18:31:09.319Z,41.17
2018-03-30T18:34:11.276Z,28.20
2018-03-30T18:37:13.305Z,29.03
2018-03-30T18:40:15.275Z,30.00
2018-03-30T18:43:17.160Z,37.40
2018-03-30T18:46:19.115Z,32.53
2018-03-30T18:49:21.084Z,28.50
2018-03-30T18:52:23.020Z,28.93
2018-03-30T18:55:24.946Z,27.67
2018-03-30T18:58:26.927Z,32.30
2018-03-30T19:01:28.866Z,34.33
2018-03-30T19:04:30.836Z,33.47
2018-03-30T19:07:32.781Z,36.30
2018-03-30T19:10:34.851Z,32.43
2018-03-30T19:13:36.904Z,36.43
2018-03-30T19:16:38.849Z,29.60
2018-03-30T19:19:40.803Z,30.50
2018-03-30T19:22:42.846Z,34.93
2018-03-30T19:25:44.894Z,30.80
2018-03-30T19:28:46.789Z,29.13
2018-03-30T19:31:48.790Z,37.60
2018-03-30T19:34:50.744Z,32.03
2018-03-30T19:37:52.824Z,34.17
2018-03-30T19:40:54.771Z,34.00
2018-03-30T19:43:56.742Z,37.27
2018-03-30T19:46:58.739Z,33.70
2018-03-30T19:50:00.787Z,32.50
2018-03-30T19:53:02.739Z,34.10
2018-03-30T19:56:04.797Z,32.80
2018-03-30T19:59:06.767Z,33.80
2018-03-30T20:02:08.697Z,32.37
2018-03-30T20:05:10.652Z,34.03
2018-03-30T20:08:12.624Z,31.00
2018-03-30T20:11:14.658Z,33.67
2018-03-30T20:14:16.692Z,32.00
2018-03-30T20:17:18.741Z,33.03
2018-03-30T20:20:20.685Z,31.03
2018-03-30T20:23:22.626Z,33.40
2018-03-30T20:26:24.581Z,29.50
2018-03-30T20:29:26.535Z,38.57
2018-03-30T20:32:28.536Z,32.37
2018-03-30T20:35:30.477Z,32.30
2018-03-30T20:38:32.418Z,29.40
2018-03-30T20:41:34.341Z,35.03
2018-03-30T20:44:36.300Z,32.03
2018-03-30T20:47:38.218Z,30.77
2018-03-30T20:50:40.287Z,30.17
2018-03-30T20:53:42.201Z,32.10
2018-03-30T20:56:44.177Z,28.80
2018-03-30T20:59:46.223Z,28.73
2018-03-30T21:02:48.165Z,28.73
2018-03-30T21:05:50.102Z,31.53
2018-03-30T21:08:52.040Z,32.27
2018-03-30T21:11:53.977Z,31.87
2018-03-30T21:14:55.932Z,30.20
2018-03-30T21:17:57.926Z,31.10
2018-03-30T21:20:59.969Z,32.30
2018-03-30T21:24:01.877Z,37.07
2018-03-30T21:27:03.805Z,32.63
2018-03-30T21:30:05.765Z,35.33
2018-03-30T21:33:07.724Z,44.97
2018-03-30T21:36:09.628Z,35.47
2018-03-30T21:39:11.548Z,47.87
2018-03-30T21:42:13.503Z,36.60
2018-03-30T21:45:15.567Z,38.33
2018-03-30T21:48:17.504Z,38.83
2018-03-30T21:51:19.456Z,37.43
2018-03-30T21:54:21.504Z,36.47
2018-03-30T21:57:23.482Z,29.30
2018-03-30T22:00:26.308Z,28.03
2018-03-30T22:03:28.288Z,31.00
2018-03-30T22:06:30.231Z,29.30
2018-03-30T22:09:32.176Z,30.57
2018-03-30T22:12:34.128Z,29.50
2018-03-30T22:15:36.068Z,33.43
2018-03-30T22:18:38.118Z,31.23
2018-03-30T22:21:40.068Z,27.97
2018-03-30T22:24:42.108Z,28.50
2018-03-30T22:27:44.109Z,31.73
2018-03-30T22:30:45.962Z,33.47
2018-03-30T22:33:48.193Z,29.93
2018-03-30T22:36:50.163Z,32.97
2018-03-30T22:39:52.203Z,30.10
2018-03-30T22:42:54.110Z,27.63
2018-03-30T22:45:56.096Z,29.53
2018-03-30T22:48:58.921Z,32.03
2018-03-30T22:52:00.887Z,26.90
2018-03-30T22:55:02.895Z,29.50
2018-03-30T22:58:04.797Z,29.93
2018-03-30T23:01:06.737Z,28.93
2018-03-30T23:04:08.636Z,34.93
2018-03-30T23:07:10.627Z,29.67
2018-03-30T23:10:12.571Z,28.07
2018-03-30T23:13:14.527Z,30.67
2018-03-30T23:16:16.479Z,27.33
2018-03-30T23:19:18.412Z,30.60
2018-03-30T23:22:20.375Z,29.80
2018-03-30T23:25:22.331Z,27.13
2018-03-30T23:28:24.307Z,30.77
2018-03-30T23:31:26.244Z,27.23
2018-03-30T23:34:28.155Z,27.90
2018-03-30T23:37:30.121Z,31.60
2018-03-30T23:40:32.033Z,30.37
2018-03-30T23:43:33.998Z,25.73
2018-03-30T23:46:35.893Z,30.60
2018-03-30T23:49:37.818Z,28.93
2018-03-30T23:52:39.761Z,26.37
2018-03-30T23:55:41.701Z,25.83
2018-03-30T23:58:44.884Z,26.43
